sensor_id;sensor_type;location;lat;lon;timestamp;P1;durP1;ratioP1;P2;durP2;ratioP2
10074;SDS011;5076;42.680;23.288;2023-02-01T00:01:56;3.30;;;3.00;;
10074;SDS011;5076;42.680;23.288;2023-02-01T00:04:23;4.53;;;3.03;;
10074;SDS011;5076;42.680;23.288;2023-02-01T00:06:50;3.53;;;2.87;;
10074;SDS011;5076;42.680;23.288;2023-02-01T00:09:17;3.83;;;2.90;;
10074;SDS011;5076;42.680;23.288;2023-02-01T00:11:44;5.00;;;3.20;;
10074;SDS011;5076;42.680;23.288;2023-02-01T00:14:10;4.27;;;3.07;;
10074;SDS011;5076;42.680;23.288;2023-02-01T00:16:38;5.33;;;2.80;;
10074;SDS011;5076;42.680;23.288;2023-02-01T00:19:07;5.13;;;3.10;;
10074;SDS011;5076;42.680;23.288;2023-02-01T00:21:37;3.47;;;2.80;;
10074;SDS011;5076;42.680;23.288;2023-02-01T00:24:04;4.83;;;2.90;;
10074;SDS011;5076;42.680;23.288;2023-02-01T00:26:31;3.53;;;2.67;;
10074;SDS011;5076;42.680;23.288;2023-02-01T00:28:59;3.07;;;2.33;;
10074;SDS011;5076;42.680;23.288;2023-02-01T00:31:26;3.20;;;2.60;;
10074;SDS011;5076;42.680;23.288;2023-02-01T00:33:53;3.90;;;3.07;;
10074;SDS011;5076;42.680;23.288;2023-02-01T00:36:21;3.23;;;2.73;;
10074;SDS011;5076;42.680;23.288;2023-02-01T00:38:48;4.67;;;2.77;;
10074;SDS011;5076;42.680;23.288;2023-02-01T00:41:16;3.00;;;2.70;;
10074;SDS011;5076;42.680;23.288;2023-02-01T00:43:45;2.60;;;2.20;;
10074;SDS011;5076;42.680;23.288;2023-02-01T00:46:13;4.77;;;2.63;;
10074;SDS011;5076;42.680;23.288;2023-02-01T00:48:41;5.13;;;2.90;;
10074;SDS011;5076;42.680;23.288;2023-02-01T00:51:08;3.50;;;2.80;;
10074;SDS011;5076;42.680;23.288;2023-02-01T00:53:37;2.87;;;2.40;;
10074;SDS011;5076;42.680;23.288;2023-02-01T00:56:04;4.37;;;3.03;;
10074;SDS011;5076;42.680;23.288;2023-02-01T00:58:32;3.10;;;2.50;;
10074;SDS011;5076;42.680;23.288;2023-02-01T01:01:04;3.97;;;2.63;;
10074;SDS011;5076;42.680;23.288;2023-02-01T01:03:32;3.07;;;2.40;;
10074;SDS011;5076;42.680;23.288;2023-02-01T01:06:01;2.87;;;2.47;;
10074;SDS011;5076;42.680;23.288;2023-02-01T01:08:29;2.93;;;2.40;;
10074;SDS011;5076;42.680;23.288;2023-02-01T01:10:57;3.53;;;2.50;;
10074;SDS011;5076;42.680;23.288;2023-02-01T01:13:24;2.90;;;2.23;;
10074;SDS011;5076;42.680;23.288;2023-02-01T01:15:51;5.10;;;2.43;;
10074;SDS011;5076;42.680;23.288;2023-02-01T01:18:18;4.33;;;2.67;;
10074;SDS011;5076;42.680;23.288;2023-02-01T01:20:44;3.17;;;2.30;;
10074;SDS011;5076;42.680;23.288;2023-02-01T01:23:11;2.30;;;2.10;;
10074;SDS011;5076;42.680;23.288;2023-02-01T01:25:38;2.70;;;1.80;;
10074;SDS011;5076;42.680;23.288;2023-02-01T01:28:07;3.53;;;1.90;;
10074;SDS011;5076;42.680;23.288;2023-02-01T01:30:34;3.40;;;2.17;;
10074;SDS011;5076;42.680;23.288;2023-02-01T01:33:01;2.50;;;1.90;;
10074;SDS011;5076;42.680;23.288;2023-02-01T01:35:28;2.10;;;1.90;;
10074;SDS011;5076;42.680;23.288;2023-02-01T01:37:55;2.20;;;2.00;;
10074;SDS011;5076;42.680;23.288;2023-02-01T01:40:22;3.40;;;1.80;;
10074;SDS011;5076;42.680;23.288;2023-02-01T01:42:49;4.77;;;2.47;;
10074;SDS011;5076;42.680;23.288;2023-02-01T01:45:32;3.17;;;1.93;;
10074;SDS011;5076;42.680;23.288;2023-02-01T01:48:01;5.30;;;1.83;;
10074;SDS011;5076;42.680;23.288;2023-02-01T01:50:35;2.77;;;2.00;;
10074;SDS011;5076;42.680;23.288;2023-02-01T01:53:07;2.00;;;1.67;;
10074;SDS011;5076;42.680;23.288;2023-02-01T01:55:37;2.30;;;2.10;;
10074;SDS011;5076;42.680;23.288;2023-02-01T01:58:09;3.30;;;2.50;;
10074;SDS011;5076;42.680;23.288;2023-02-01T02:00:41;3.27;;;2.00;;
10074;SDS011;5076;42.680;23.288;2023-02-01T02:03:11;4.43;;;2.20;;
10074;SDS011;5076;42.680;23.288;2023-02-01T02:05:44;3.33;;;2.20;;
10074;SDS011;5076;42.680;23.288;2023-02-01T02:08:12;2.90;;;2.10;;
10074;SDS011;5076;42.680;23.288;2023-02-01T02:10:39;3.20;;;1.90;;
10074;SDS011;5076;42.680;23.288;2023-02-01T02:13:23;2.93;;;2.17;;
10074;SDS011;5076;42.680;23.288;2023-02-01T02:15:55;2.77;;;1.83;;
10074;SDS011;5076;42.680;23.288;2023-02-01T02:18:36;3.00;;;2.17;;
10074;SDS011;5076;42.680;23.288;2023-02-01T02:21:16;4.93;;;2.27;;
10074;SDS011;5076;42.680;23.288;2023-02-01T02:26:47;1.60;;;1.50;;
10074;SDS011;5076;42.680;23.288;2023-02-01T02:29:34;3.60;;;1.90;;
10074;SDS011;5076;42.680;23.288;2023-02-01T02:32:28;3.53;;;1.70;;
10074;SDS011;5076;42.680;23.288;2023-02-01T02:35:20;3.33;;;1.77;;
10074;SDS011;5076;42.680;23.288;2023-02-01T02:37:54;2.40;;;1.77;;
10074;SDS011;5076;42.680;23.288;2023-02-01T02:40:31;2.07;;;1.77;;
10074;SDS011;5076;42.680;23.288;2023-02-01T02:43:04;1.70;;;1.60;;
10074;SDS011;5076;42.680;23.288;2023-02-01T02:45:54;2.93;;;1.70;;
10074;SDS011;5076;42.680;23.288;2023-02-01T02:48:54;6.87;;;1.93;;
10074;SDS011;5076;42.680;23.288;2023-02-01T02:51:29;3.03;;;1.90;;
10074;SDS011;5076;42.680;23.288;2023-02-01T02:54:18;2.83;;;1.60;;
10074;SDS011;5076;42.680;23.288;2023-02-01T02:57:07;3.63;;;1.73;;
10074;SDS011;5076;42.680;23.288;2023-02-01T02:59:55;2.07;;;1.50;;
10074;SDS011;5076;42.680;23.288;2023-02-01T03:02:42;3.03;;;1.73;;
10074;SDS011;5076;42.680;23.288;2023-02-01T03:05:31;2.17;;;1.40;;
10074;SDS011;5076;42.680;23.288;2023-02-01T03:08:04;5.03;;;1.57;;
10074;SDS011;5076;42.680;23.288;2023-02-01T03:10:39;2.90;;;1.80;;
10074;SDS011;5076;42.680;23.288;2023-02-01T03:13:11;1.63;;;1.37;;
10074;SDS011;5076;42.680;23.288;2023-02-01T03:15:44;2.20;;;1.60;;
10074;SDS011;5076;42.680;23.288;2023-02-01T03:18:19;1.70;;;1.60;;
10074;SDS011;5076;42.680;23.288;2023-02-01T03:20:52;3.67;;;1.67;;
10074;SDS011;5076;42.680;23.288;2023-02-01T03:23:23;3.27;;;1.70;;
10074;SDS011;5076;42.680;23.288;2023-02-01T03:25:55;2.43;;;1.60;;
10074;SDS011;5076;42.680;23.288;2023-02-01T03:28:26;2.80;;;1.70;;
10074;SDS011;5076;42.680;23.288;2023-02-01T03:30:56;1.80;;;1.60;;
10074;SDS011;5076;42.680;23.288;2023-02-01T03:33:24;1.83;;;1.53;;
10074;SDS011;5076;42.680;23.288;2023-02-01T03:35:57;2.23;;;1.50;;
10074;SDS011;5076;42.680;23.288;2023-02-01T03:38:32;2.80;;;1.40;;
10074;SDS011;5076;42.680;23.288;2023-02-01T03:41:03;3.57;;;2.23;;
10074;SDS011;5076;42.680;23.288;2023-02-01T03:43:37;2.00;;;1.60;;
10074;SDS011;5076;42.680;23.288;2023-02-01T03:46:12;3.60;;;1.50;;
10074;SDS011;5076;42.680;23.288;2023-02-01T03:48:46;2.47;;;1.40;;
10074;SDS011;5076;42.680;23.288;2023-02-01T03:51:15;1.70;;;1.60;;
10074;SDS011;5076;42.680;23.288;2023-02-01T03:53:45;1.37;;;1.13;;
10074;SDS011;5076;42.680;23.288;2023-02-01T03:56:14;1.90;;;1.53;;
10074;SDS011;5076;42.680;23.288;2023-02-01T03:58:42;3.50;;;1.30;;
10074;SDS011;5076;42.680;23.288;2023-02-01T04:01:23;2.20;;;1.60;;
10074;SDS011;5076;42.680;23.288;2023-02-01T04:03:50;3.63;;;1.70;;
10074;SDS011;5076;42.680;23.288;2023-02-01T04:06:17;3.27;;;1.40;;
10074;SDS011;5076;42.680;23.288;2023-02-01T04:08:45;3.33;;;1.60;;
10074;SDS011;5076;42.680;23.288;2023-02-01T04:11:12;2.40;;;1.80;;
10074;SDS011;5076;42.680;23.288;2023-02-01T04:13:39;2.13;;;1.67;;
10074;SDS011;5076;42.680;23.288;2023-02-01T04:16:05;4.37;;;1.87;;
10074;SDS011;5076;42.680;23.288;2023-02-01T04:18:32;4.17;;;1.73;;
10074;SDS011;5076;42.680;23.288;2023-02-01T04:21:00;3.83;;;1.60;;
10074;SDS011;5076;42.680;23.288;2023-02-01T04:23:27;4.10;;;1.43;;
10074;SDS011;5076;42.680;23.288;2023-02-01T04:25:55;3.80;;;1.70;;
10074;SDS011;5076;42.680;23.288;2023-02-01T04:28:25;3.23;;;1.87;;
10074;SDS011;5076;42.680;23.288;2023-02-01T04:30:52;3.20;;;2.30;;
10074;SDS011;5076;42.680;23.288;2023-02-01T04:33:19;3.70;;;2.10;;
10074;SDS011;5076;42.680;23.288;2023-02-01T04:35:45;4.27;;;1.90;;
10074;SDS011;5076;42.680;23.288;2023-02-01T04:38:13;4.03;;;2.10;;
10074;SDS011;5076;42.680;23.288;2023-02-01T04:40:40;5.30;;;1.97;;
10074;SDS011;5076;42.680;23.288;2023-02-01T04:43:08;3.00;;;1.90;;
10074;SDS011;5076;42.680;23.288;2023-02-01T04:45:35;3.00;;;2.10;;
10074;SDS011;5076;42.680;23.288;2023-02-01T04:48:02;6.07;;;1.87;;
10074;SDS011;5076;42.680;23.288;2023-02-01T04:50:29;2.47;;;1.97;;
10074;SDS011;5076;42.680;23.288;2023-02-01T04:52:56;5.97;;;2.23;;
10074;SDS011;5076;42.680;23.288;2023-02-01T04:55:22;3.37;;;2.00;;
10074;SDS011;5076;42.680;23.288;2023-02-01T04:57:49;5.07;;;2.47;;
10074;SDS011;5076;42.680;23.288;2023-02-01T05:00:18;3.80;;;2.27;;
10074;SDS011;5076;42.680;23.288;2023-02-01T05:02:45;5.57;;;3.13;;
10074;SDS011;5076;42.680;23.288;2023-02-01T05:05:12;2.37;;;2.10;;
10074;SDS011;5076;42.680;23.288;2023-02-01T05:07:41;3.60;;;2.53;;
10074;SDS011;5076;42.680;23.288;2023-02-01T05:10:08;3.57;;;2.43;;
10074;SDS011;5076;42.680;23.288;2023-02-01T05:12:36;3.13;;;2.43;;
10074;SDS011;5076;42.680;23.288;2023-02-01T05:15:21;4.77;;;2.20;;
10074;SDS011;5076;42.680;23.288;2023-02-01T05:17:48;4.60;;;2.90;;
10074;SDS011;5076;42.680;23.288;2023-02-01T05:20:15;2.93;;;2.40;;
10074;SDS011;5076;42.680;23.288;2023-02-01T05:22:42;3.73;;;2.50;;
10074;SDS011;5076;42.680;23.288;2023-02-01T05:25:09;3.67;;;2.50;;
10074;SDS011;5076;42.680;23.288;2023-02-01T05:27:36;4.40;;;2.47;;
10074;SDS011;5076;42.680;23.288;2023-02-01T05:30:03;4.47;;;2.57;;
10074;SDS011;5076;42.680;23.288;2023-02-01T05:32:32;2.97;;;2.60;;
10074;SDS011;5076;42.680;23.288;2023-02-01T05:34:59;4.90;;;2.70;;
10074;SDS011;5076;42.680;23.288;2023-02-01T05:37:26;6.00;;;2.70;;
10074;SDS011;5076;42.680;23.288;2023-02-01T05:39:53;4.47;;;2.40;;
10074;SDS011;5076;42.680;23.288;2023-02-01T05:42:20;3.67;;;2.20;;
10074;SDS011;5076;42.680;23.288;2023-02-01T05:44:47;4.13;;;2.70;;
10074;SDS011;5076;42.680;23.288;2023-02-01T05:47:14;3.93;;;1.90;;
10074;SDS011;5076;42.680;23.288;2023-02-01T05:49:42;3.50;;;2.33;;
10074;SDS011;5076;42.680;23.288;2023-02-01T05:52:09;3.90;;;2.60;;
10074;SDS011;5076;42.680;23.288;2023-02-01T05:54:38;3.80;;;2.20;;
10074;SDS011;5076;42.680;23.288;2023-02-01T05:57:05;2.97;;;2.10;;
10074;SDS011;5076;42.680;23.288;2023-02-01T05:59:31;2.97;;;1.83;;
10074;SDS011;5076;42.680;23.288;2023-02-01T06:01:58;3.67;;;2.10;;
10074;SDS011;5076;42.680;23.288;2023-02-01T06:04:25;4.13;;;2.17;;
10074;SDS011;5076;42.680;23.288;2023-02-01T06:06:54;5.07;;;2.17;;
10074;SDS011;5076;42.680;23.288;2023-02-01T06:09:20;5.13;;;2.33;;
10074;SDS011;5076;42.680;23.288;2023-02-01T06:11:47;3.60;;;2.00;;
10074;SDS011;5076;42.680;23.288;2023-02-01T06:14:14;6.60;;;3.73;;
10074;SDS011;5076;42.680;23.288;2023-02-01T06:16:41;4.30;;;2.73;;
10074;SDS011;5076;42.680;23.288;2023-02-01T06:19:11;4.23;;;2.40;;
10074;SDS011;5076;42.680;23.288;2023-02-01T06:21:38;4.70;;;1.93;;
10074;SDS011;5076;42.680;23.288;2023-02-01T06:24:07;2.20;;;1.70;;
10074;SDS011;5076;42.680;23.288;2023-02-01T06:26:34;4.37;;;2.10;;
10074;SDS011;5076;42.680;23.288;2023-02-01T06:29:02;2.80;;;1.90;;
10074;SDS011;5076;42.680;23.288;2023-02-01T06:31:29;3.10;;;2.07;;
10074;SDS011;5076;42.680;23.288;2023-02-01T06:33:57;6.87;;;2.27;;
10074;SDS011;5076;42.680;23.288;2023-02-01T06:36:23;3.40;;;2.13;;
10074;SDS011;5076;42.680;23.288;2023-02-01T06:38:50;7.73;;;2.33;;
10074;SDS011;5076;42.680;23.288;2023-02-01T06:41:19;4.57;;;1.80;;
10074;SDS011;5076;42.680;23.288;2023-02-01T06:43:46;6.43;;;2.03;;
10074;SDS011;5076;42.680;23.288;2023-02-01T06:46:13;4.43;;;1.80;;
10074;SDS011;5076;42.680;23.288;2023-02-01T06:48:40;4.83;;;2.27;;
10074;SDS011;5076;42.680;23.288;2023-02-01T06:51:15;7.43;;;2.10;;
10074;SDS011;5076;42.680;23.288;2023-02-01T06:53:46;3.00;;;1.87;;
10074;SDS011;5076;42.680;23.288;2023-02-01T06:56:13;5.53;;;2.03;;
10074;SDS011;5076;42.680;23.288;2023-02-01T06:58:41;8.53;;;2.83;;
10074;SDS011;5076;42.680;23.288;2023-02-01T07:01:08;3.17;;;1.70;;
10074;SDS011;5076;42.680;23.288;2023-02-01T07:03:36;3.03;;;2.60;;
10074;SDS011;5076;42.680;23.288;2023-02-01T07:06:04;4.47;;;2.10;;
10074;SDS011;5076;42.680;23.288;2023-02-01T07:08:32;4.90;;;2.10;;
10074;SDS011;5076;42.680;23.288;2023-02-01T07:11:01;8.67;;;2.40;;
10074;SDS011;5076;42.680;23.288;2023-02-01T07:13:28;3.43;;;1.93;;
10074;SDS011;5076;42.680;23.288;2023-02-01T07:15:58;5.80;;;2.30;;
10074;SDS011;5076;42.680;23.288;2023-02-01T07:18:26;4.40;;;1.87;;
10074;SDS011;5076;42.680;23.288;2023-02-01T07:20:54;9.00;;;2.60;;
10074;SDS011;5076;42.680;23.288;2023-02-01T07:23:21;3.20;;;2.10;;
10074;SDS011;5076;42.680;23.288;2023-02-01T07:25:48;3.13;;;2.03;;
10074;SDS011;5076;42.680;23.288;2023-02-01T07:28:19;3.73;;;1.70;;
10074;SDS011;5076;42.680;23.288;2023-02-01T07:30:46;10.10;;;2.53;;
10074;SDS011;5076;42.680;23.288;2023-02-01T07:33:17;4.20;;;2.27;;
10074;SDS011;5076;42.680;23.288;2023-02-01T07:35:46;5.10;;;2.30;;
10074;SDS011;5076;42.680;23.288;2023-02-01T07:38:13;3.37;;;2.23;;
10074;SDS011;5076;42.680;23.288;2023-02-01T07:40:40;4.87;;;2.07;;
10074;SDS011;5076;42.680;23.288;2023-02-01T07:43:08;4.17;;;2.10;;
10074;SDS011;5076;42.680;23.288;2023-02-01T07:45:35;5.30;;;2.17;;
10074;SDS011;5076;42.680;23.288;2023-02-01T07:48:03;3.57;;;2.03;;
10074;SDS011;5076;42.680;23.288;2023-02-01T07:50:31;4.67;;;1.50;;
10074;SDS011;5076;42.680;23.288;2023-02-01T07:53:00;5.37;;;2.10;;
10074;SDS011;5076;42.680;23.288;2023-02-01T07:55:27;1.97;;;1.77;;
10074;SDS011;5076;42.680;23.288;2023-02-01T07:57:56;6.33;;;2.50;;
10074;SDS011;5076;42.680;23.288;2023-02-01T08:00:25;3.03;;;1.73;;
10074;SDS011;5076;42.680;23.288;2023-02-01T08:03:09;6.40;;;2.30;;
10074;SDS011;5076;42.680;23.288;2023-02-01T08:05:37;4.60;;;2.30;;
10074;SDS011;5076;42.680;23.288;2023-02-01T08:08:04;5.93;;;2.10;;
10074;SDS011;5076;42.680;23.288;2023-02-01T08:10:31;4.00;;;1.60;;
10074;SDS011;5076;42.680;23.288;2023-02-01T08:13:00;6.20;;;1.93;;
10074;SDS011;5076;42.680;23.288;2023-02-01T08:15:27;2.37;;;1.70;;
10074;SDS011;5076;42.680;23.288;2023-02-01T08:17:55;2.17;;;1.30;;
10074;SDS011;5076;42.680;23.288;2023-02-01T08:20:23;3.40;;;2.20;;
10074;SDS011;5076;42.680;23.288;2023-02-01T08:22:53;5.47;;;1.70;;
10074;SDS011;5076;42.680;23.288;2023-02-01T08:25:20;3.73;;;1.77;;
10074;SDS011;5076;42.680;23.288;2023-02-01T08:27:47;3.60;;;1.60;;
10074;SDS011;5076;42.680;23.288;2023-02-01T08:30:15;3.57;;;1.97;;
10074;SDS011;5076;42.680;23.288;2023-02-01T08:32:42;4.43;;;2.20;;
10074;SDS011;5076;42.680;23.288;2023-02-01T08:35:09;3.63;;;1.80;;
10074;SDS011;5076;42.680;23.288;2023-02-01T08:37:36;6.30;;;2.20;;
10074;SDS011;5076;42.680;23.288;2023-02-01T08:40:06;3.97;;;1.63;;
10074;SDS011;5076;42.680;23.288;2023-02-01T08:42:33;4.30;;;1.90;;
10074;SDS011;5076;42.680;23.288;2023-02-01T08:45:19;3.07;;;1.87;;
10074;SDS011;5076;42.680;23.288;2023-02-01T08:47:48;4.10;;;1.60;;
10074;SDS011;5076;42.680;23.288;2023-02-01T08:50:16;4.27;;;2.23;;
10074;SDS011;5076;42.680;23.288;2023-02-01T08:52:44;3.03;;;1.70;;
10074;SDS011;5076;42.680;23.288;2023-02-01T08:55:12;2.03;;;1.60;;
10074;SDS011;5076;42.680;23.288;2023-02-01T08:57:39;3.10;;;1.80;;
10074;SDS011;5076;42.680;23.288;2023-02-01T09:00:07;5.17;;;2.00;;
10074;SDS011;5076;42.680;23.288;2023-02-01T09:02:36;3.20;;;1.50;;
10074;SDS011;5076;42.680;23.288;2023-02-01T09:05:04;2.90;;;1.67;;
10074;SDS011;5076;42.680;23.288;2023-02-01T09:07:31;5.20;;;1.40;;
10074;SDS011;5076;42.680;23.288;2023-02-01T09:09:59;3.50;;;1.63;;
10074;SDS011;5076;42.680;23.288;2023-02-01T09:12:27;2.57;;;1.87;;
10074;SDS011;5076;42.680;23.288;2023-02-01T09:14:55;6.73;;;2.27;;
10074;SDS011;5076;42.680;23.288;2023-02-01T09:17:22;6.83;;;2.17;;
10074;SDS011;5076;42.680;23.288;2023-02-01T09:19:49;5.30;;;1.88;;
10074;SDS011;5076;42.680;23.288;2023-02-01T09:22:15;2.97;;;1.80;;
10074;SDS011;5076;42.680;23.288;2023-02-01T09:24:42;5.63;;;1.90;;
10074;SDS011;5076;42.680;23.288;2023-02-01T09:27:09;4.20;;;1.53;;
10074;SDS011;5076;42.680;23.288;2023-02-01T09:29:38;1.77;;;1.20;;
10074;SDS011;5076;42.680;23.288;2023-02-01T09:32:04;1.33;;;1.17;;
10074;SDS011;5076;42.680;23.288;2023-02-01T09:34:37;6.40;;;2.00;;
10074;SDS011;5076;42.680;23.288;2023-02-01T09:37:09;5.67;;;1.80;;
10074;SDS011;5076;42.680;23.288;2023-02-01T09:39:36;2.60;;;1.67;;
10074;SDS011;5076;42.680;23.288;2023-02-01T09:42:06;2.13;;;1.43;;
10074;SDS011;5076;42.680;23.288;2023-02-01T09:47:46;3.73;;;2.07;;
10074;SDS011;5076;42.680;23.288;2023-02-01T09:50:18;6.97;;;2.07;;
10074;SDS011;5076;42.680;23.288;2023-02-01T09:52:51;2.27;;;1.37;;
10074;SDS011;5076;42.680;23.288;2023-02-01T09:55:24;3.10;;;1.47;;
10074;SDS011;5076;42.680;23.288;2023-02-01T09:58:01;3.13;;;1.27;;
10074;SDS011;5076;42.680;23.288;2023-02-01T10:00:39;2.33;;;1.57;;
10074;SDS011;5076;42.680;23.288;2023-02-01T10:03:14;2.23;;;1.40;;
10074;SDS011;5076;42.680;23.288;2023-02-01T10:05:50;5.77;;;1.60;;
10074;SDS011;5076;42.680;23.288;2023-02-01T10:08:31;3.23;;;1.27;;
10074;SDS011;5076;42.680;23.288;2023-02-01T10:11:08;5.27;;;1.63;;
10074;SDS011;5076;42.680;23.288;2023-02-01T10:13:51;3.33;;;1.50;;
10074;SDS011;5076;42.680;23.288;2023-02-01T10:16:30;2.80;;;1.47;;
10074;SDS011;5076;42.680;23.288;2023-02-01T10:22:02;2.47;;;1.87;;
10074;SDS011;5076;42.680;23.288;2023-02-01T10:24:34;6.67;;;2.00;;
10074;SDS011;5076;42.680;23.288;2023-02-01T10:27:11;4.83;;;1.10;;
10074;SDS011;5076;42.680;23.288;2023-02-01T10:29:41;3.83;;;1.40;;
10074;SDS011;5076;42.680;23.288;2023-02-01T10:32:12;3.10;;;1.30;;
10074;SDS011;5076;42.680;23.288;2023-02-01T10:34:42;3.43;;;1.73;;
10074;SDS011;5076;42.680;23.288;2023-02-01T10:37:18;2.87;;;1.70;;
10074;SDS011;5076;42.680;23.288;2023-02-01T10:39:52;1.40;;;1.03;;
10074;SDS011;5076;42.680;23.288;2023-02-01T10:42:21;3.10;;;1.60;;
10074;SDS011;5076;42.680;23.288;2023-02-01T10:44:50;4.43;;;1.50;;
10074;SDS011;5076;42.680;23.288;2023-02-01T10:47:19;2.63;;;2.10;;
10074;SDS011;5076;42.680;23.288;2023-02-01T10:53:00;3.20;;;1.73;;
10074;SDS011;5076;42.680;23.288;2023-02-01T10:55:41;4.77;;;1.40;;
10074;SDS011;5076;42.680;23.288;2023-02-01T10:58:59;2.27;;;1.40;;
10074;SDS011;5076;42.680;23.288;2023-02-01T11:01:37;2.30;;;1.57;;
10074;SDS011;5076;42.680;23.288;2023-02-01T11:04:15;2.80;;;1.60;;
10074;SDS011;5076;42.680;23.288;2023-02-01T11:06:51;2.33;;;1.27;;
10074;SDS011;5076;42.680;23.288;2023-02-01T11:09:38;2.57;;;1.20;;
10074;SDS011;5076;42.680;23.288;2023-02-01T11:12:20;4.40;;;1.57;;
10074;SDS011;5076;42.680;23.288;2023-02-01T11:14:56;1.97;;;1.33;;
10074;SDS011;5076;42.680;23.288;2023-02-01T11:17:28;2.10;;;1.23;;
10074;SDS011;5076;42.680;23.288;2023-02-01T11:20:00;2.43;;;1.17;;
10074;SDS011;5076;42.680;23.288;2023-02-01T11:22:30;2.60;;;1.50;;
10074;SDS011;5076;42.680;23.288;2023-02-01T11:24:57;4.07;;;1.63;;
10074;SDS011;5076;42.680;23.288;2023-02-01T11:27:27;1.53;;;1.10;;
10074;SDS011;5076;42.680;23.288;2023-02-01T11:29:56;2.30;;;1.30;;
10074;SDS011;5076;42.680;23.288;2023-02-01T11:32:29;5.23;;;1.40;;
10074;SDS011;5076;42.680;23.288;2023-02-01T11:34:57;3.90;;;1.40;;
10074;SDS011;5076;42.680;23.288;2023-02-01T11:37:28;3.40;;;1.67;;
10074;SDS011;5076;42.680;23.288;2023-02-01T11:40:02;2.30;;;1.40;;
10074;SDS011;5076;42.680;23.288;2023-02-01T11:42:30;3.20;;;1.30;;
10074;SDS011;5076;42.680;23.288;2023-02-01T11:45:15;1.77;;;1.00;;
10074;SDS011;5076;42.680;23.288;2023-02-01T11:47:45;2.20;;;1.33;;
10074;SDS011;5076;42.680;23.288;2023-02-01T11:50:14;1.53;;;0.90;;
10074;SDS011;5076;42.680;23.288;2023-02-01T11:52:54;1.80;;;1.20;;
10074;SDS011;5076;42.680;23.288;2023-02-01T11:55:39;3.20;;;1.20;;
10074;SDS011;5076;42.680;23.288;2023-02-01T11:58:19;1.20;;;1.03;;
10074;SDS011;5076;42.680;23.288;2023-02-01T12:01:10;1.37;;;1.20;;
10074;SDS011;5076;42.680;23.288;2023-02-01T12:03:49;1.33;;;1.13;;
10074;SDS011;5076;42.680;23.288;2023-02-01T12:06:48;3.70;;;1.40;;
10074;SDS011;5076;42.680;23.288;2023-02-01T12:12:12;2.47;;;1.30;;
10074;SDS011;5076;42.680;23.288;2023-02-01T12:14:56;2.47;;;1.10;;
10074;SDS011;5076;42.680;23.288;2023-02-01T12:17:55;3.10;;;1.57;;
10074;SDS011;5076;42.680;23.288;2023-02-01T12:20:34;2.60;;;1.37;;
10074;SDS011;5076;42.680;23.288;2023-02-01T12:23:23;1.30;;;1.10;;
10074;SDS011;5076;42.680;23.288;2023-02-01T12:26:05;2.53;;;1.00;;
10074;SDS011;5076;42.680;23.288;2023-02-01T12:28:51;1.57;;;1.10;;
10074;SDS011;5076;42.680;23.288;2023-02-01T12:31:40;2.20;;;1.37;;
10074;SDS011;5076;42.680;23.288;2023-02-01T12:34:19;2.80;;;1.60;;
10074;SDS011;5076;42.680;23.288;2023-02-01T12:36:59;3.10;;;1.23;;
10074;SDS011;5076;42.680;23.288;2023-02-01T12:39:38;4.67;;;1.60;;
10074;SDS011;5076;42.680;23.288;2023-02-01T12:42:11;6.57;;;1.33;;
10074;SDS011;5076;42.680;23.288;2023-02-01T12:44:46;1.60;;;1.20;;
10074;SDS011;5076;42.680;23.288;2023-02-01T12:47:18;1.30;;;1.07;;
10074;SDS011;5076;42.680;23.288;2023-02-01T12:49:55;2.10;;;1.30;;
10074;SDS011;5076;42.680;23.288;2023-02-01T12:52:28;1.67;;;1.27;;
10074;SDS011;5076;42.680;23.288;2023-02-01T12:55:03;3.20;;;1.40;;
10074;SDS011;5076;42.680;23.288;2023-02-01T12:57:38;1.20;;;1.00;;
10074;SDS011;5076;42.680;23.288;2023-02-01T13:00:13;1.70;;;1.30;;
10074;SDS011;5076;42.680;23.288;2023-02-01T13:02:49;2.13;;;1.20;;
10074;SDS011;5076;42.680;23.288;2023-02-01T13:05:22;1.33;;;1.00;;
10074;SDS011;5076;42.680;23.288;2023-02-01T13:07:57;3.23;;;1.13;;
10074;SDS011;5076;42.680;23.288;2023-02-01T13:10:29;3.10;;;1.40;;
10074;SDS011;5076;42.680;23.288;2023-02-01T13:13:04;2.63;;;1.40;;
10074;SDS011;5076;42.680;23.288;2023-02-01T13:15:39;2.53;;;1.40;;
10074;SDS011;5076;42.680;23.288;2023-02-01T13:18:11;2.27;;;1.50;;
10074;SDS011;5076;42.680;23.288;2023-02-01T13:20:42;2.27;;;1.40;;
10074;SDS011;5076;42.680;23.288;2023-02-01T13:23:23;2.93;;;1.80;;
10074;SDS011;5076;42.680;23.288;2023-02-01T13:25:54;5.50;;;1.50;;
10074;SDS011;5076;42.680;23.288;2023-02-01T13:28:25;1.90;;;1.27;;
10074;SDS011;5076;42.680;23.288;2023-02-01T13:30:59;2.33;;;1.17;;
10074;SDS011;5076;42.680;23.288;2023-02-01T13:33:49;0.77;;;0.70;;
10074;SDS011;5076;42.680;23.288;2023-02-01T13:36:32;2.87;;;1.00;;
10074;SDS011;5076;42.680;23.288;2023-02-01T13:39:21;2.90;;;1.00;;
10074;SDS011;5076;42.680;23.288;2023-02-01T13:42:13;2.07;;;1.50;;
10074;SDS011;5076;42.680;23.288;2023-02-01T13:44:44;2.70;;;1.33;;
10074;SDS011;5076;42.680;23.288;2023-02-01T13:47:18;3.17;;;1.23;;
10074;SDS011;5076;42.680;23.288;2023-02-01T13:49:49;1.20;;;0.90;;
10074;SDS011;5076;42.680;23.288;2023-02-01T13:52:23;1.70;;;0.90;;
10074;SDS011;5076;42.680;23.288;2023-02-01T13:55:13;1.60;;;1.13;;
10074;SDS011;5076;42.680;23.288;2023-02-01T13:57:42;1.63;;;1.10;;
10074;SDS011;5076;42.680;23.288;2023-02-01T14:00:24;3.17;;;1.43;;
10074;SDS011;5076;42.680;23.288;2023-02-01T14:09:15;2.20;;;1.20;;
10074;SDS011;5076;42.680;23.288;2023-02-01T14:11:45;2.13;;;1.60;;
10074;SDS011;5076;42.680;23.288;2023-02-01T14:23:23;2.87;;;1.30;;
10074;SDS011;5076;42.680;23.288;2023-02-01T14:26:03;1.77;;;1.27;;
10074;SDS011;5076;42.680;23.288;2023-02-01T14:28:33;1.50;;;1.20;;
10074;SDS011;5076;42.680;23.288;2023-02-01T14:31:13;2.20;;;1.33;;
10074;SDS011;5076;42.680;23.288;2023-02-01T14:33:45;1.60;;;1.03;;
10074;SDS011;5076;42.680;23.288;2023-02-01T14:36:12;2.27;;;1.30;;
10074;SDS011;5076;42.680;23.288;2023-02-01T14:38:46;6.77;;;1.53;;
10074;SDS011;5076;42.680;23.288;2023-02-01T14:41:26;2.60;;;1.60;;
10074;SDS011;5076;42.680;23.288;2023-02-01T14:52:51;2.63;;;1.50;;
10074;SDS011;5076;42.680;23.288;2023-02-01T14:55:34;2.50;;;1.30;;
10074;SDS011;5076;42.680;23.288;2023-02-01T14:58:05;2.90;;;1.20;;
10074;SDS011;5076;42.680;23.288;2023-02-01T15:00:43;1.67;;;1.23;;
10074;SDS011;5076;42.680;23.288;2023-02-01T15:03:36;1.93;;;1.37;;
10074;SDS011;5076;42.680;23.288;2023-02-01T15:06:24;4.27;;;1.23;;
10074;SDS011;5076;42.680;23.288;2023-02-01T15:08:54;3.47;;;1.40;;
10074;SDS011;5076;42.680;23.288;2023-02-01T15:11:24;2.07;;;1.70;;
10074;SDS011;5076;42.680;23.288;2023-02-01T15:13:52;1.70;;;1.60;;
10074;SDS011;5076;42.680;23.288;2023-02-01T15:16:21;5.00;;;1.83;;
10074;SDS011;5076;42.680;23.288;2023-02-01T15:18:50;2.83;;;1.47;;
10074;SDS011;5076;42.680;23.288;2023-02-01T15:21:19;2.83;;;1.37;;
10074;SDS011;5076;42.680;23.288;2023-02-01T15:23:47;1.93;;;1.40;;
10074;SDS011;5076;42.680;23.288;2023-02-01T15:26:25;3.43;;;1.60;;
10074;SDS011;5076;42.680;23.288;2023-02-01T15:28:53;5.13;;;1.70;;
10074;SDS011;5076;42.680;23.288;2023-02-01T15:31:32;3.10;;;1.57;;
10074;SDS011;5076;42.680;23.288;2023-02-01T15:34:03;3.53;;;1.80;;
10074;SDS011;5076;42.680;23.288;2023-02-01T15:36:31;3.13;;;2.00;;
10074;SDS011;5076;42.680;23.288;2023-02-01T15:39:11;2.97;;;2.00;;
10074;SDS011;5076;42.680;23.288;2023-02-01T15:41:52;3.03;;;1.83;;
10074;SDS011;5076;42.680;23.288;2023-02-01T15:44:27;4.33;;;2.23;;
10074;SDS011;5076;42.680;23.288;2023-02-01T15:46:58;4.27;;;2.17;;
10074;SDS011;5076;42.680;23.288;2023-02-01T15:49:27;2.87;;;1.70;;
10074;SDS011;5076;42.680;23.288;2023-02-01T15:51:59;2.07;;;1.40;;
10074;SDS011;5076;42.680;23.288;2023-02-01T15:54:28;2.50;;;1.83;;
10074;SDS011;5076;42.680;23.288;2023-02-01T15:57:00;1.93;;;1.57;;